sensor_id;sensor_type;location;lat;lon;timestamp;temperature;humidity
851;DHT22;412;51.400;7.480;2023-03-01T00:01:12;4.10;96.90
851;DHT22;412;51.400;7.480;2023-03-01T00:03:38;4.20;89.90
851;DHT22;412;51.400;7.480;2023-03-01T00:06:05;3.70;95.80
851;DHT22;412;51.400;7.480;2023-03-01T00:08:32;4.20;90.00
851;DHT22;412;51.400;7.480;2023-03-01T00:13:34;4.10;90.30
851;DHT22;412;51.400;7.480;2023-03-01T00:16:05;4.10;90.60
851;DHT22;412;51.400;7.480;2023-03-01T00:18:32;4.10;90.70
851;DHT22;412;51.400;7.480;2023-03-01T00:20:58;4.00;91.10
851;DHT22;412;51.400;7.480;2023-03-01T00:23:24;4.70;91.60
851;DHT22;412;51.400;7.480;2023-03-01T00:25:51;4.00;91.00
851;DHT22;412;51.400;7.480;2023-03-01T00:28:17;4.40;91.30
851;DHT22;412;51.400;7.480;2023-03-01T00:30:43;4.00;97.00
851;DHT22;412;51.400;7.480;2023-03-01T00:35:36;3.90;96.60
851;DHT22;412;51.400;7.480;2023-03-01T00:38:02;3.90;91.10
851;DHT22;412;51.400;7.480;2023-03-01T00:40:29;3.90;91.00
851;DHT22;412;51.400;7.480;2023-03-01T00:42:54;3.80;90.90
851;DHT22;412;51.400;7.480;2023-03-01T00:47:46;3.80;99.40
851;DHT22;412;51.400;7.480;2023-03-01T00:50:13;3.80;91.10
851;DHT22;412;51.400;7.480;2023-03-01T00:52:39;3.70;91.20
851;DHT22;412;51.400;7.480;2023-03-01T00:55:05;4.50;91.80
851;DHT22;412;51.400;7.480;2023-03-01T00:57:31;3.50;96.00
851;DHT22;412;51.400;7.480;2023-03-01T00:59:57;3.60;99.60
851;DHT22;412;51.400;7.480;2023-03-01T01:02:23;3.60;91.70
851;DHT22;412;51.400;7.480;2023-03-01T01:07:15;3.50;91.50
851;DHT22;412;51.400;7.480;2023-03-01T01:09:41;3.70;92.10
851;DHT22;412;51.400;7.480;2023-03-01T01:12:07;3.50;92.10
851;DHT22;412;51.400;7.480;2023-03-01T01:14:34;3.50;91.90
851;DHT22;412;51.400;7.480;2023-03-01T01:17:00;4.70;92.40
851;DHT22;412;51.400;7.480;2023-03-01T01:19:26;4.50;92.40
851;DHT22;412;51.400;7.480;2023-03-01T01:21:52;3.50;91.80
851;DHT22;412;51.400;7.480;2023-03-01T01:24:19;4.30;92.40
851;DHT22;412;51.400;7.480;2023-03-01T01:26:45;3.60;92.20
851;DHT22;412;51.400;7.480;2023-03-01T01:29:11;4.00;92.60
851;DHT22;412;51.400;7.480;2023-03-01T01:31:38;3.50;92.50
851;DHT22;412;51.400;7.480;2023-03-01T01:34:06;3.40;92.60
851;DHT22;412;51.400;7.480;2023-03-01T01:36:34;3.30;93.50
851;DHT22;412;51.400;7.480;2023-03-01T01:38:59;3.30;93.30
851;DHT22;412;51.400;7.480;2023-03-01T01:41:27;3.80;93.50
851;DHT22;412;51.400;7.480;2023-03-01T01:46:41;3.20;93.30
851;DHT22;412;51.400;7.480;2023-03-01T01:49:19;3.20;93.40
851;DHT22;412;51.400;7.480;2023-03-01T01:51:49;3.10;93.00
851;DHT22;412;51.400;7.480;2023-03-01T01:54:24;4.30;93.80
851;DHT22;412;51.400;7.480;2023-03-01T01:56:55;3.00;93.80
851;DHT22;412;51.400;7.480;2023-03-01T01:59:23;3.30;94.50
851;DHT22;412;51.400;7.480;2023-03-01T02:01:51;3.00;94.20
851;DHT22;412;51.400;7.480;2023-03-01T02:04:17;4.10;94.40
851;DHT22;412;51.400;7.480;2023-03-01T02:07:01;3.00;94.10
851;DHT22;412;51.400;7.480;2023-03-01T02:09:28;3.00;93.90
851;DHT22;412;51.400;7.480;2023-03-01T02:11:56;3.00;94.00
851;DHT22;412;51.400;7.480;2023-03-01T02:14:22;3.00;94.50
851;DHT22;412;51.400;7.480;2023-03-01T02:16:48;3.10;94.20
851;DHT22;412;51.400;7.480;2023-03-01T02:22:12;3.00;94.20
851;DHT22;412;51.400;7.480;2023-03-01T02:30:36;3.00;93.30
851;DHT22;412;51.400;7.480;2023-03-01T02:33:03;3.50;93.80
851;DHT22;412;51.400;7.480;2023-03-01T02:35:32;2.80;93.40
851;DHT22;412;51.400;7.480;2023-03-01T02:38:00;2.80;99.90
851;DHT22;412;51.400;7.480;2023-03-01T02:40:29;2.80;99.90
851;DHT22;412;51.400;7.480;2023-03-01T02:42:57;2.90;99.90
851;DHT22;412;51.400;7.480;2023-03-01T02:45:25;2.90;99.90
851;DHT22;412;51.400;7.480;2023-03-01T02:47:54;2.80;99.90
851;DHT22;412;51.400;7.480;2023-03-01T02:53:12;2.70;98.50
851;DHT22;412;51.400;7.480;2023-03-01T02:55:38;3.80;94.10
851;DHT22;412;51.400;7.480;2023-03-01T02:58:04;2.70;99.90
851;DHT22;412;51.400;7.480;2023-03-01T03:00:34;2.60;93.60
851;DHT22;412;51.400;7.480;2023-03-01T03:03:01;2.60;99.90
851;DHT22;412;51.400;7.480;2023-03-01T03:05:29;2.60;93.50
851;DHT22;412;51.400;7.480;2023-03-01T03:07:56;2.50;99.90
851;DHT22;412;51.400;7.480;2023-03-01T03:10:24;2.50;96.20
851;DHT22;412;51.400;7.480;2023-03-01T03:12:56;3.20;99.90
851;DHT22;412;51.400;7.480;2023-03-01T03:15:22;2.50;99.90
851;DHT22;412;51.400;7.480;2023-03-01T03:17:48;2.40;99.90
851;DHT22;412;51.400;7.480;2023-03-01T03:20:16;2.30;99.90
851;DHT22;412;51.400;7.480;2023-03-01T03:22:49;2.40;93.90
851;DHT22;412;51.400;7.480;2023-03-01T03:25:16;2.30;99.90
851;DHT22;412;51.400;7.480;2023-03-01T03:27:44;2.30;99.90
851;DHT22;412;51.400;7.480;2023-03-01T03:30:14;2.30;99.90
851;DHT22;412;51.400;7.480;2023-03-01T03:32:40;2.20;99.90
851;DHT22;412;51.400;7.480;2023-03-01T03:35:09;2.20;99.90
851;DHT22;412;51.400;7.480;2023-03-01T03:37:37;2.20;99.90
851;DHT22;412;51.400;7.480;2023-03-01T03:40:21;2.10;99.90
851;DHT22;412;51.400;7.480;2023-03-01T03:45:14;2.10;99.90
851;DHT22;412;51.400;7.480;2023-03-01T03:47:39;2.10;99.90
851;DHT22;412;51.400;7.480;2023-03-01T03:50:05;2.10;99.90
851;DHT22;412;51.400;7.480;2023-03-01T03:54:57;2.20;99.90
851;DHT22;412;51.400;7.480;2023-03-01T04:04:48;2.20;94.90
851;DHT22;412;51.400;7.480;2023-03-01T04:07:17;2.10;99.90
851;DHT22;412;51.400;7.480;2023-03-01T04:12:10;2.10;99.90
851;DHT22;412;51.400;7.480;2023-03-01T04:14:36;2.10;99.90
851;DHT22;412;51.400;7.480;2023-03-01T04:19:31;2.10;99.90
851;DHT22;412;51.400;7.480;2023-03-01T04:22:02;2.10;99.90
851;DHT22;412;51.400;7.480;2023-03-01T04:24:33;1.90;95.60
851;DHT22;412;51.400;7.480;2023-03-01T04:26:59;2.10;99.90
851;DHT22;412;51.400;7.480;2023-03-01T04:34:16;1.80;99.40
851;DHT22;412;51.400;7.480;2023-03-01T04:36:42;1.90;99.90
851;DHT22;412;51.400;7.480;2023-03-01T04:41:38;1.80;94.70
851;DHT22;412;51.400;7.480;2023-03-01T04:44:05;1.80;99.90
851;DHT22;412;51.400;7.480;2023-03-01T04:46:31;1.80;99.90
851;DHT22;412;51.400;7.480;2023-03-01T04:51:23;2.40;96.40
851;DHT22;412;51.400;7.480;2023-03-01T04:56:16;1.70;94.90
851;DHT22;412;51.400;7.480;2023-03-01T04:58:44;1.60;99.90
851;DHT22;412;51.400;7.480;2023-03-01T05:01:15;1.60;99.90
851;DHT22;412;51.400;7.480;2023-03-01T05:03:47;0.90;99.90
851;DHT22;412;51.400;7.480;2023-03-01T05:06:13;0.90;99.90
851;DHT22;412;51.400;7.480;2023-03-01T05:08:39;0.70;99.90
851;DHT22;412;51.400;7.480;2023-03-01T05:11:05;0.70;99.90
851;DHT22;412;51.400;7.480;2023-03-01T05:13:35;0.70;99.90
851;DHT22;412;51.400;7.480;2023-03-01T05:16:03;0.80;99.90
851;DHT22;412;51.400;7.480;2023-03-01T05:18:30;1.60;99.90
851;DHT22;412;51.400;7.480;2023-03-01T05:21:02;1.30;99.90
851;DHT22;412;51.400;7.480;2023-03-01T05:23:30;1.20;99.90
851;DHT22;412;51.400;7.480;2023-03-01T05:26:00;1.30;99.90
851;DHT22;412;51.400;7.480;2023-03-01T05:28:27;1.70;99.90
851;DHT22;412;51.400;7.480;2023-03-01T05:30:56;1.30;99.90
851;DHT22;412;51.400;7.480;2023-03-01T05:33:22;1.30;99.90
851;DHT22;412;51.400;7.480;2023-03-01T05:35:49;1.50;99.90
851;DHT22;412;51.400;7.480;2023-03-01T05:38:16;0.90;99.90
851;DHT22;412;51.400;7.480;2023-03-01T05:40:43;1.30;99.90
851;DHT22;412;51.400;7.480;2023-03-01T05:43:12;1.40;99.90
851;DHT22;412;51.400;7.480;2023-03-01T05:45:39;1.10;97.90
851;DHT22;412;51.400;7.480;2023-03-01T05:48:07;1.30;99.90
851;DHT22;412;51.400;7.480;2023-03-01T05:50:35;0.70;99.90
851;DHT22;412;51.400;7.480;2023-03-01T05:55:30;0.90;99.90
851;DHT22;412;51.400;7.480;2023-03-01T05:58:05;0.90;99.90
851;DHT22;412;51.400;7.480;2023-03-01T06:00:31;0.90;99.90
851;DHT22;412;51.400;7.480;2023-03-01T06:02:58;0.80;99.90
851;DHT22;412;51.400;7.480;2023-03-01T06:05:24;0.90;99.90
851;DHT22;412;51.400;7.480;2023-03-01T06:07:50;1.10;99.90
851;DHT22;412;51.400;7.480;2023-03-01T06:10:17;1.10;99.90
851;DHT22;412;51.400;7.480;2023-03-01T06:12:44;1.10;99.90
851;DHT22;412;51.400;7.480;2023-03-01T06:15:11;1.30;99.90
851;DHT22;412;51.400;7.480;2023-03-01T06:17:39;1.30;99.60
851;DHT22;412;51.400;7.480;2023-03-01T06:20:12;1.40;99.00
851;DHT22;412;51.400;7.480;2023-03-01T06:22:38;1.50;98.60
851;DHT22;412;51.400;7.480;2023-03-01T06:25:05;2.00;98.50
851;DHT22;412;51.400;7.480;2023-03-01T06:27:31;1.70;98.10
851;DHT22;412;51.400;7.480;2023-03-01T06:29:56;1.70;98.10
851;DHT22;412;51.400;7.480;2023-03-01T06:32:22;1.70;98.30
851;DHT22;412;51.400;7.480;2023-03-01T06:34:49;2.50;99.90
851;DHT22;412;51.400;7.480;2023-03-01T06:37:16;3.50;99.90
851;DHT22;412;51.400;7.480;2023-03-01T06:39:41;4.60;99.90
851;DHT22;412;51.400;7.480;2023-03-01T06:42:08;6.40;98.10
851;DHT22;412;51.400;7.480;2023-03-01T06:44:36;6.40;98.40
851;DHT22;412;51.400;7.480;2023-03-01T06:47:02;7.60;99.50
851;DHT22;412;51.400;7.480;2023-03-01T06:49:28;8.10;90.90
851;DHT22;412;51.400;7.480;2023-03-01T06:54:20;6.40;92.90
851;DHT22;412;51.400;7.480;2023-03-01T06:56:48;5.90;93.50
851;DHT22;412;51.400;7.480;2023-03-01T06:59:14;5.60;95.50
851;DHT22;412;51.400;7.480;2023-03-01T07:01:40;5.50;77.90
851;DHT22;412;51.400;7.480;2023-03-01T07:04:05;4.80;96.40
851;DHT22;412;51.400;7.480;2023-03-01T07:06:31;4.60;93.40
851;DHT22;412;51.400;7.480;2023-03-01T07:11:23;4.10;97.80
851;DHT22;412;51.400;7.480;2023-03-01T07:13:49;3.80;94.90
851;DHT22;412;51.400;7.480;2023-03-01T07:18:41;3.50;88.50
851;DHT22;412;51.400;7.480;2023-03-01T07:21:08;3.10;97.70
851;DHT22;412;51.400;7.480;2023-03-01T07:23:34;3.00;92.20
851;DHT22;412;51.400;7.480;2023-03-01T07:28:29;2.90;92.70
851;DHT22;412;51.400;7.480;2023-03-01T07:31:01;2.90;99.90
851;DHT22;412;51.400;7.480;2023-03-01T07:33:27;3.20;94.50
851;DHT22;412;51.400;7.480;2023-03-01T07:35:57;2.80;94.50
851;DHT22;412;51.400;7.480;2023-03-01T07:38:23;2.80;99.90
851;DHT22;412;51.400;7.480;2023-03-01T07:40:49;2.80;95.10
851;DHT22;412;51.400;7.480;2023-03-01T07:45:41;2.60;99.90
851;DHT22;412;51.400;7.480;2023-03-01T07:50:32;2.60;96.10
851;DHT22;412;51.400;7.480;2023-03-01T07:55:24;3.70;97.10
851;DHT22;412;51.400;7.480;2023-03-01T08:00:16;2.60;99.90
851;DHT22;412;51.400;7.480;2023-03-01T08:05:09;3.00;96.50
851;DHT22;412;51.400;7.480;2023-03-01T08:07:35;3.60;97.10
851;DHT22;412;51.400;7.480;2023-03-01T08:12:27;3.20;95.70
851;DHT22;412;51.400;7.480;2023-03-01T08:14:53;3.20;95.70
851;DHT22;412;51.400;7.480;2023-03-01T08:17:19;3.20;95.10
851;DHT22;412;51.400;7.480;2023-03-01T08:22:14;2.90;94.20
851;DHT22;412;51.400;7.480;2023-03-01T08:24:40;2.60;96.00
851;DHT22;412;51.400;7.480;2023-03-01T08:27:05;2.40;96.60
851;DHT22;412;51.400;7.480;2023-03-01T08:29:32;2.40;97.80
851;DHT22;412;51.400;7.480;2023-03-01T08:31:59;3.80;98.80
851;DHT22;412;51.400;7.480;2023-03-01T08:36:54;2.90;98.20
851;DHT22;412;51.400;7.480;2023-03-01T08:39:20;3.10;99.80
851;DHT22;412;51.400;7.480;2023-03-01T08:41:47;3.20;99.10
851;DHT22;412;51.400;7.480;2023-03-01T08:44:14;3.50;96.30
851;DHT22;412;51.400;7.480;2023-03-01T08:46:43;5.20;97.50
851;DHT22;412;51.400;7.480;2023-03-01T08:49:16;3.60;96.80
851;DHT22;412;51.400;7.480;2023-03-01T08:51:42;4.00;99.90
851;DHT22;412;51.400;7.480;2023-03-01T08:54:14;3.90;95.30
851;DHT22;412;51.400;7.480;2023-03-01T08:56:40;4.00;96.50
851;DHT22;412;51.400;7.480;2023-03-01T08:59:06;4.10;95.50
851;DHT22;412;51.400;7.480;2023-03-01T09:03:59;4.20;94.50
851;DHT22;412;51.400;7.480;2023-03-01T09:06:25;4.20;95.60
851;DHT22;412;51.400;7.480;2023-03-01T09:08:50;4.40;96.00
851;DHT22;412;51.400;7.480;2023-03-01T09:11:19;4.60;94.30
851;DHT22;412;51.400;7.480;2023-03-01T09:13:47;4.60;94.70
851;DHT22;412;51.400;7.480;2023-03-01T09:16:15;4.70;94.80
851;DHT22;412;51.400;7.480;2023-03-01T09:18:42;5.60;95.30
851;DHT22;412;51.400;7.480;2023-03-01T09:21:10;5.20;93.90
851;DHT22;412;51.400;7.480;2023-03-01T09:23:39;5.00;93.70
851;DHT22;412;51.400;7.480;2023-03-01T09:26:06;5.10;93.00
851;DHT22;412;51.400;7.480;2023-03-01T09:31:00;5.30;91.80
851;DHT22;412;51.400;7.480;2023-03-01T09:33:28;5.20;90.30
851;DHT22;412;51.400;7.480;2023-03-01T09:36:02;5.40;90.00
851;DHT22;412;51.400;7.480;2023-03-01T09:38:28;5.50;89.70
851;DHT22;412;51.400;7.480;2023-03-01T09:40:54;6.00;88.10
851;DHT22;412;51.400;7.480;2023-03-01T09:43:31;6.10;87.00
851;DHT22;412;51.400;7.480;2023-03-01T09:46:04;6.20;86.50
851;DHT22;412;51.400;7.480;2023-03-01T09:48:40;6.50;86.30
851;DHT22;412;51.400;7.480;2023-03-01T09:51:12;7.20;80.50
851;DHT22;412;51.400;7.480;2023-03-01T09:53:40;7.20;81.20
851;DHT22;412;51.400;7.480;2023-03-01T09:56:24;7.50;80.70
851;DHT22;412;51.400;7.480;2023-03-01T09:59:31;7.80;78.70
851;DHT22;412;51.400;7.480;2023-03-01T10:04:51;8.40;72.20
851;DHT22;412;51.400;7.480;2023-03-01T10:07:30;8.70;73.50
851;DHT22;412;51.400;7.480;2023-03-01T10:09:58;8.90;71.30
851;DHT22;412;51.400;7.480;2023-03-01T10:12:35;9.20;70.60
851;DHT22;412;51.400;7.480;2023-03-01T10:17:46;9.50;68.00
851;DHT22;412;51.400;7.480;2023-03-01T10:20:26;9.80;68.00
851;DHT22;412;51.400;7.480;2023-03-01T10:28:50;10.50;63.70
851;DHT22;412;51.400;7.480;2023-03-01T10:30:57;10.60;62.10
851;DHT22;412;51.400;7.480;2023-03-01T10:33:32;10.80;62.00
851;DHT22;412;51.400;7.480;2023-03-01T10:35:59;10.80;61.70
851;DHT22;412;51.400;7.480;2023-03-01T10:38:25;10.90;60.50
851;DHT22;412;51.400;7.480;2023-03-01T10:41:04;11.20;59.70
851;DHT22;412;51.400;7.480;2023-03-01T10:43:48;11.20;58.90
851;DHT22;412;51.400;7.480;2023-03-01T10:46:33;11.30;59.40
851;DHT22;412;51.400;7.480;2023-03-01T10:49:21;11.60;61.00
851;DHT22;412;51.400;7.480;2023-03-01T10:51:49;11.80;60.90
851;DHT22;412;51.400;7.480;2023-03-01T10:54:20;12.10;58.30
851;DHT22;412;51.400;7.480;2023-03-01T10:56:50;12.20;56.90
851;DHT22;412;51.400;7.480;2023-03-01T10:59:38;12.40;57.60
851;DHT22;412;51.400;7.480;2023-03-01T11:02:17;12.50;56.90
851;DHT22;412;51.400;7.480;2023-03-01T11:07:49;12.10;56.50
851;DHT22;412;51.400;7.480;2023-03-01T11:10:24;12.20;57.00
851;DHT22;412;51.400;7.480;2023-03-01T11:12:51;12.30;57.90
851;DHT22;412;51.400;7.480;2023-03-01T11:15:27;12.20;57.80
851;DHT22;412;51.400;7.480;2023-03-01T11:17:54;12.10;58.10
851;DHT22;412;51.400;7.480;2023-03-01T11:20:32;12.10;57.50
851;DHT22;412;51.400;7.480;2023-03-01T11:23:03;12.80;55.30
851;DHT22;412;51.400;7.480;2023-03-01T11:25:35;12.80;55.90
851;DHT22;412;51.400;7.480;2023-03-01T11:28:04;13.00;57.20
851;DHT22;412;51.400;7.480;2023-03-01T11:30:44;13.10;55.40
851;DHT22;412;51.400;7.480;2023-03-01T11:33:29;12.50;56.00
851;DHT22;412;51.400;7.480;2023-03-01T11:38:34;12.80;55.60
851;DHT22;412;51.400;7.480;2023-03-01T11:41:12;13.00;55.60
851;DHT22;412;51.400;7.480;2023-03-01T11:43:59;13.10;55.80
851;DHT22;412;51.400;7.480;2023-03-01T11:52:12;13.00;54.70
851;DHT22;412;51.400;7.480;2023-03-01T11:57:41;13.30;57.10
851;DHT22;412;51.400;7.480;2023-03-01T12:00:23;13.20;55.20
851;DHT22;412;51.400;7.480;2023-03-01T12:03:09;13.30;55.60
851;DHT22;412;51.400;7.480;2023-03-01T12:05:57;13.20;55.00
851;DHT22;412;51.400;7.480;2023-03-01T12:22:24;13.30;56.30
851;DHT22;412;51.400;7.480;2023-03-01T12:25:16;13.30;56.60
851;DHT22;412;51.400;7.480;2023-03-01T12:28:34;13.30;54.40
851;DHT22;412;51.400;7.480;2023-03-01T12:31:40;13.20;55.30
851;DHT22;412;51.400;7.480;2023-03-01T12:36:51;12.90;55.10
851;DHT22;412;51.400;7.480;2023-03-01T12:47:25;11.80;57.10
851;DHT22;412;51.400;7.480;2023-03-01T12:49:59;11.70;58.00
851;DHT22;412;51.400;7.480;2023-03-01T12:52:47;11.20;58.50
851;DHT22;412;51.400;7.480;2023-03-01T13:00:56;11.20;58.20
851;DHT22;412;51.400;7.480;2023-03-01T13:03:47;11.20;58.50
851;DHT22;412;51.400;7.480;2023-03-01T13:06:19;11.10;58.20
851;DHT22;412;51.400;7.480;2023-03-01T13:09:03;11.00;57.70
851;DHT22;412;51.400;7.480;2023-03-01T13:11:32;10.90;58.30
851;DHT22;412;51.400;7.480;2023-03-01T13:16:54;10.70;57.70
851;DHT22;412;51.400;7.480;2023-03-01T13:19:23;10.50;58.70
851;DHT22;412;51.400;7.480;2023-03-01T13:21:51;10.10;59.40
851;DHT22;412;51.400;7.480;2023-03-01T13:24:33;9.90;60.80
851;DHT22;412;51.400;7.480;2023-03-01T13:29:55;10.10;58.50
851;DHT22;412;51.400;7.480;2023-03-01T13:32:47;10.20;58.20
851;DHT22;412;51.400;7.480;2023-03-01T13:37:45;10.20;57.00
851;DHT22;412;51.400;7.480;2023-03-01T13:42:50;10.30;58.30
851;DHT22;412;51.400;7.480;2023-03-01T13:45:32;10.30;57.90
851;DHT22;412;51.400;7.480;2023-03-01T13:48:15;10.20;58.20
851;DHT22;412;51.400;7.480;2023-03-01T13:50:49;10.40;56.90
851;DHT22;412;51.400;7.480;2023-03-01T13:53:21;10.40;56.00
851;DHT22;412;51.400;7.480;2023-03-01T13:55:51;10.40;55.50
851;DHT22;412;51.400;7.480;2023-03-01T13:58:26;10.40;55.10
851;DHT22;412;51.400;7.480;2023-03-01T14:01:01;10.50;55.20
851;DHT22;412;51.400;7.480;2023-03-01T14:03:27;10.60;56.60
851;DHT22;412;51.400;7.480;2023-03-01T14:06:06;10.70;57.30
851;DHT22;412;51.400;7.480;2023-03-01T14:08:33;10.90;58.10
851;DHT22;412;51.400;7.480;2023-03-01T14:19:22;10.90;57.00
851;DHT22;412;51.400;7.480;2023-03-01T14:22:20;10.70;56.30
851;DHT22;412;51.400;7.480;2023-03-01T14:24:50;10.60;56.10
851;DHT22;412;51.400;7.480;2023-03-01T14:27:17;10.60;57.10
851;DHT22;412;51.400;7.480;2023-03-01T14:29:44;10.70;57.20
851;DHT22;412;51.400;7.480;2023-03-01T14:32:21;10.70;56.50
851;DHT22;412;51.400;7.480;2023-03-01T14:34:49;10.60;56.70
851;DHT22;412;51.400;7.480;2023-03-01T14:37:34;10.70;57.00
851;DHT22;412;51.400;7.480;2023-03-01T14:40:03;10.80;56.80
851;DHT22;412;51.400;7.480;2023-03-01T14:42:34;10.80;55.00
851;DHT22;412;51.400;7.480;2023-03-01T14:45:01;10.80;54.60
851;DHT22;412;51.400;7.480;2023-03-01T14:47:32;10.90;55.60
851;DHT22;412;51.400;7.480;2023-03-01T14:50:02;10.80;56.20
851;DHT22;412;51.400;7.480;2023-03-01T14:52:36;10.70;56.20
851;DHT22;412;51.400;7.480;2023-03-01T14:55:06;10.80;55.60
851;DHT22;412;51.400;7.480;2023-03-01T14:57:32;10.90;55.90
851;DHT22;412;51.400;7.480;2023-03-01T15:00:00;11.00;54.70
851;DHT22;412;51.400;7.480;2023-03-01T15:02:30;11.00;55.20
851;DHT22;412;51.400;7.480;2023-03-01T15:04:58;10.80;55.40
851;DHT22;412;51.400;7.480;2023-03-01T15:07:33;10.80;55.30
851;DHT22;412;51.400;7.480;2023-03-01T15:10:00;10.70;55.30
851;DHT22;412;51.400;7.480;2023-03-01T15:14:56;10.80;55.50
851;DHT22;412;51.400;7.480;2023-03-01T15:17:36;10.80;55.30
851;DHT22;412;51.400;7.480;2023-03-01T15:20:06;10.80;54.60
851;DHT22;412;51.400;7.480;2023-03-01T15:22:32;10.70;55.00
851;DHT22;412;51.400;7.480;2023-03-01T15:24:58;10.70;55.10
851;DHT22;412;51.400;7.480;2023-03-01T15:27:26;10.60;54.50
851;DHT22;412;51.400;7.480;2023-03-01T15:29:55;10.20;54.80
851;DHT22;412;51.400;7.480;2023-03-01T15:34:49;10.60;54.60
851;DHT22;412;51.400;7.480;2023-03-01T15:39:59;10.50;53.80
851;DHT22;412;51.400;7.480;2023-03-01T15:45:19;10.40;54.00
851;DHT22;412;51.400;7.480;2023-03-01T15:48:05;10.30;53.50
851;DHT22;412;51.400;7.480;2023-03-01T15:50:40;10.30;54.30
851;DHT22;412;51.400;7.480;2023-03-01T15:53:12;10.20;54.00
851;DHT22;412;51.400;7.480;2023-03-01T15:55:40;10.10;55.10
851;DHT22;412;51.400;7.480;2023-03-01T15:58:12;10.00;54.90
851;DHT22;412;51.400;7.480;2023-03-01T16:00:38;10.00;56.10
851;DHT22;412;51.400;7.480;2023-03-01T16:03:05;10.00;56.60
851;DHT22;412;51.400;7.480;2023-03-01T16:05:34;10.00;57.00
851;DHT22;412;51.400;7.480;2023-03-01T16:08:00;10.10;57.00
851;DHT22;412;51.400;7.480;2023-03-01T16:10:27;10.00;56.70
851;DHT22;412;51.400;7.480;2023-03-01T16:12:53;10.10;56.10
851;DHT22;412;51.400;7.480;2023-03-01T16:15:23;10.30;57.00
851;DHT22;412;51.400;7.480;2023-03-01T16:17:50;9.90;56.80
851;DHT22;412;51.400;7.480;2023-03-01T16:20:16;9.90;56.40
851;DHT22;412;51.400;7.480;2023-03-01T16:22:43;9.80;56.90
851;DHT22;412;51.400;7.480;2023-03-01T16:25:13;9.70;56.40
851;DHT22;412;51.400;7.480;2023-03-01T16:27:48;9.50;55.70
851;DHT22;412;51.400;7.480;2023-03-01T16:30:16;9.40;55.50
851;DHT22;412;51.400;7.480;2023-03-01T16:32:44;9.40;55.70
851;DHT22;412;51.400;7.480;2023-03-01T16:35:13;9.40;56.40
851;DHT22;412;51.400;7.480;2023-03-01T16:37:40;9.40;56.90
851;DHT22;412;51.400;7.480;2023-03-01T16:40:11;9.50;57.30
851;DHT22;412;51.400;7.480;2023-03-01T16:42:41;9.40;57.60
851;DHT22;412;51.400;7.480;2023-03-01T16:45:08;9.30;57.80
851;DHT22;412;51.400;7.480;2023-03-01T16:47:34;9.20;58.80
851;DHT22;412;51.400;7.480;2023-03-01T16:50:00;9.10;59.00
851;DHT22;412;51.400;7.480;2023-03-01T16:52:26;9.10;58.90
851;DHT22;412;51.400;7.480;2023-03-01T16:54:51;9.00;59.40
851;DHT22;412;51.400;7.480;2023-03-01T16:57:17;9.10;58.70
851;DHT22;412;51.400;7.480;2023-03-01T16:59:43;9.20;58.80
851;DHT22;412;51.400;7.480;2023-03-01T17:02:13;9.20;59.40
851;DHT22;412;51.400;7.480;2023-03-01T17:04:40;9.10;59.50
851;DHT22;412;51.400;7.480;2023-03-01T17:07:06;9.10;60.30
851;DHT22;412;51.400;7.480;2023-03-01T17:09:35;9.10;60.30
851;DHT22;412;51.400;7.480;2023-03-01T17:12:05;9.00;61.30
851;DHT22;412;51.400;7.480;2023-03-01T17:14:31;9.00;61.20
851;DHT22;412;51.400;7.480;2023-03-01T17:16:56;8.90;61.10
851;DHT22;412;51.400;7.480;2023-03-01T17:19:22;8.90;61.60
851;DHT22;412;51.400;7.480;2023-03-01T17:21:48;9.20;61.90
851;DHT22;412;51.400;7.480;2023-03-01T17:24:14;8.90;61.40
851;DHT22;412;51.400;7.480;2023-03-01T17:26:40;8.90;61.80
851;DHT22;412;51.400;7.480;2023-03-01T17:29:06;8.90;62.40
851;DHT22;412;51.400;7.480;2023-03-01T17:31:33;8.80;62.50
851;DHT22;412;51.400;7.480;2023-03-01T17:33:59;8.80;63.00
851;DHT22;412;51.400;7.480;2023-03-01T17:36:24;8.80;63.00
851;DHT22;412;51.400;7.480;2023-03-01T17:38:51;8.70;63.00
851;DHT22;412;51.400;7.480;2023-03-01T17:41:17;8.60;62.30
851;DHT22;412;51.400;7.480;2023-03-01T17:43:46;8.60;61.90
851;DHT22;412;51.400;7.480;2023-03-01T17:46:12;8.50;61.50
851;DHT22;412;51.400;7.480;2023-03-01T17:48:38;8.50;61.60
851;DHT22;412;51.400;7.480;2023-03-01T17:51:09;8.50;61.30
851;DHT22;412;51.400;7.480;2023-03-01T17:53:36;8.60;60.60
851;DHT22;412;51.400;7.480;2023-03-01T17:56:04;8.40;60.10
851;DHT22;412;51.400;7.480;2023-03-01T17:58:31;8.40;60.30
851;DHT22;412;51.400;7.480;2023-03-01T18:01:26;8.40;60.30
851;DHT22;412;51.400;7.480;2023-03-01T18:03:53;8.30;62.10
851;DHT22;412;51.400;7.480;2023-03-01T18:06:26;8.30;61.00
851;DHT22;412;51.400;7.480;2023-03-01T18:08:52;8.30;60.50
851;DHT22;412;51.400;7.480;2023-03-01T18:11:20;8.30;61.10
851;DHT22;412;51.400;7.480;2023-03-01T18:13:47;8.20;61.00
851;DHT22;412;51.400;7.480;2023-03-01T18:16:15;8.30;60.20
851;DHT22;412;51.400;7.480;2023-03-01T18:18:42;8.30;59.80
851;DHT22;412;51.400;7.480;2023-03-01T18:21:10;8.30;60.10
851;DHT22;412;51.400;7.480;2023-03-01T18:23:35;8.20;59.90
851;DHT22;412;51.400;7.480;2023-03-01T18:26:04;8.20;60.00
851;DHT22;412;51.400;7.480;2023-03-01T18:28:31;8.10;59.20
851;DHT22;412;51.400;7.480;2023-03-01T18:30:59;8.20;59.90
851;DHT22;412;51.400;7.480;2023-03-01T18:33:25;8.10;59.60
851;DHT22;412;51.400;7.480;2023-03-01T18:35:51;8.10;60.10
851;DHT22;412;51.400;7.480;2023-03-01T18:38:17;8.00;60.70
851;DHT22;412;51.400;7.480;2023-03-01T18:40:43;7.90;60.20
851;DHT22;412;51.400;7.480;2023-03-01T18:43:10;8.00;60.00
851;DHT22;412;51.400;7.480;2023-03-01T18:45:35;7.90;60.40
851;DHT22;412;51.400;7.480;2023-03-01T18:48:02;8.20;60.90
851;DHT22;412;51.400;7.480;2023-03-01T18:50:28;7.90;61.20
851;DHT22;412;51.400;7.480;2023-03-01T18:52:57;7.90;61.80
851;DHT22;412;51.400;7.480;2023-03-01T18:55:23;7.80;62.60
851;DHT22;412;51.400;7.480;2023-03-01T18:57:48;7.80;62.40
851;DHT22;412;51.400;7.480;2023-03-01T19:00:14;7.80;62.80
851;DHT22;412;51.400;7.480;2023-03-01T19:02:40;7.60;62.90
851;DHT22;412;51.400;7.480;2023-03-01T19:05:06;7.60;63.30
851;DHT22;412;51.400;7.480;2023-03-01T19:07:32;7.60;63.70
851;DHT22;412;51.400;7.480;2023-03-01T19:09:58;7.50;64.10
851;DHT22;412;51.400;7.480;2023-03-01T19:12:24;7.50;64.70
851;DHT22;412;51.400;7.480;2023-03-01T19:14:52;7.50;64.50
851;DHT22;412;51.400;7.480;2023-03-01T19:17:23;7.50;65.10
851;DHT22;412;51.400;7.480;2023-03-01T19:19:58;7.50;65.50
851;DHT22;412;51.400;7.480;2023-03-01T19:22:25;7.70;65.30
851;DHT22;412;51.400;7.480;2023-03-01T19:24:50;7.40;65.80
851;DHT22;412;51.400;7.480;2023-03-01T19:27:16;7.40;65.30
851;DHT22;412;51.400;7.480;2023-03-01T19:29:42;7.40;65.40
851;DHT22;412;51.400;7.480;2023-03-01T19:32:07;7.40;65.60
851;DHT22;412;51.400;7.480;2023-03-01T19:34:33;7.30;66.20
851;DHT22;412;51.400;7.480;2023-03-01T19:37:00;7.20;67.00
851;DHT22;412;51.400;7.480;2023-03-01T19:39:26;7.20;67.50
851;DHT22;412;51.400;7.480;2023-03-01T19:41:52;7.20;67.30
851;DHT22;412;51.400;7.480;2023-03-01T19:44:18;7.10;67.30
851;DHT22;412;51.400;7.480;2023-03-01T19:46:51;7.10;67.50
851;DHT22;412;51.400;7.480;2023-03-01T19:49:17;7.00;67.90
851;DHT22;412;51.400;7.480;2023-03-01T19:51:42;7.00;68.50
851;DHT22;412;51.400;7.480;2023-03-01T19:54:08;6.80;68.10
851;DHT22;412;51.400;7.480;2023-03-01T19:56:36;7.40;69.10